Latest Weather Observations for Lucas Heights

IDN60901

Issued at 7:12 am EDT Thursday 29 January 2015 (issued every 10 minutes, with the page automatically refreshed every 10 minutes)

About weather observations | Map of Sydney area stations | Latest observations for Sydney area | Other Formats
Station Details ID: 066023 Name: LUCAS HEIGHTS AWS Lat: -34.05 Lon: 150.98 Height: 140.0 m
Data from the previous 72 hours. | See also: Recent months for locations in New South Wales
Date/Time
EDT
Tmp

°C
App
Tmp
°C
Dew
Point
°C
Rel
Hum
%
Delta-T

°C
Wind Press
QNH
hPa
Press
MSL
hPa
Rain
since
9 am
mm
Dir
 
Spd
km/h
Gust
km/h
Spd
kts
Gust
kts
29/07:00am 15.0 11.5 10.2 73 2.5 SSW 19 33 10 18 1012.2 - 2.9
29/06:45am 14.5 10.8 10.2 75 2.3 SSW 20 32 11 17 1012.0 - 2.9
29/06:30am 14.3 11.2 10.2 76 2.1 SSW 17 24 9 13 1011.8 - 2.9
29/06:15am 14.3 10.6 10.3 77 2.1 SSW 20 35 11 19 1011.6 - 2.9
29/06:00am 14.2 10.6 10.4 78 2.0 SSW 20 37 11 20 1011.5 - 2.9
29/05:45am 14.2 10.6 10.4 78 2.0 SSW 20 33 11 18 1011.5 - 2.9
29/05:30am 14.3 10.9 10.5 78 2.0 SW 19 24 10 13 1011.4 - 2.9
29/05:15am 14.5 10.9 10.6 77 2.1 SW 20 26 11 14 1011.4 - 2.9
29/05:00am 14.6 11.6 10.8 78 2.0 SSW 17 24 9 13 1011.3 - 2.9
29/04:45am 14.5 11.2 11.0 79 1.9 SSW 19 28 10 15 1011.4 - 2.9
29/04:30am 13.9 10.6 10.9 82 1.6 SSW 19 28 10 15 1011.6 - 2.9
29/04:15am 13.7 10.7 10.5 81 1.7 SW 17 24 9 13 1011.7 - 2.9
29/04:00am 14.4 11.5 11.0 80 1.8 SSW 17 24 9 13 1011.9 - 2.9
29/03:45am 14.5 12.0 11.1 80 1.8 SSW 15 22 8 12 1012.0 - 2.9
29/03:30am 14.9 12.5 11.5 80 1.8 SSW 15 20 8 11 1012.0 - 2.9
29/03:15am 14.9 12.2 11.6 80 1.8 SSW 17 28 9 15 1012.0 - 2.9
29/03:00am 14.9 12.2 11.6 80 1.8 SSW 17 24 9 13 1012.1 - 2.9
29/02:45am 14.9 12.6 11.6 80 1.8 SSW 15 24 8 13 1012.2 - 2.9
29/02:30am 15.0 13.0 11.6 80 1.8 SSW 13 19 7 10 1012.3 - 2.9
29/02:15am 15.1 12.8 11.7 80 1.8 SSW 15 24 8 13 1012.5 - 2.9
29/02:00am 15.1 12.4 11.6 79 1.9 SSW 17 24 9 13 1012.8 - 2.9
29/01:45am 15.4 12.8 12.0 80 1.9 SSW 17 30 9 16 1013.0 - 2.9
29/01:30am 14.8 12.0 11.4 80 1.8 S 17 32 9 17 1013.2 - 2.9
29/01:15am 14.8 12.3 11.0 78 2.0 SW 15 19 8 10 1013.2 - 2.9
29/01:00am 15.3 12.8 11.2 76 2.2 SW 15 20 8 11 1013.2 - 2.9
29/12:45am 15.9 12.8 11.6 75 2.3 SW 19 24 10 13 1013.1 - 2.9
29/12:30am 16.0 13.0 11.8 76 2.3 SSW 19 28 10 15 1013.1 - 2.9
29/12:15am 16.1 13.1 11.9 76 2.3 SSW 19 32 10 17 1013.2 - 2.9
29/12:00am 16.2 13.0 11.9 75 2.4 S 20 30 11 16 1013.3 - 2.9
 
Date/Time
EDT
Tmp

°C
App
Tmp
°C
Dew
Point
°C
Rel
Hum
%
Delta-T

°C
Wind Press
QNH
hPa
Press
MSL
hPa
Rain
since
9 am
mm
Dir
 
Spd
km/h
Gust
km/h
Spd
kts
Gust
kts
28/11:45pm 16.3 13.1 12.0 75 2.4 S 20 33 11 18 1013.3 - 2.9
28/11:30pm 16.4 12.9 12.1 76 2.4 S 22 32 12 17 1013.4 - 2.9
28/11:15pm 16.4 13.5 12.2 76 2.3 SSW 19 28 10 15 1013.5 - 2.9
28/11:00pm 16.5 14.0 12.2 76 2.4 SSW 17 28 9 15 1013.7 - 2.9
28/10:45pm 16.7 13.8 12.3 75 2.4 SSW 19 28 10 15 1013.9 - 2.9
28/10:30pm 16.6 13.7 12.3 76 2.4 SSW 19 28 10 15 1013.9 - 2.9
28/10:15pm 16.7 13.8 12.3 75 2.4 SSW 19 32 10 17 1013.8 - 2.9
28/10:00pm 16.7 14.2 12.3 75 2.4 SSW 17 28 9 15 1013.7 - 2.9
28/09:45pm 16.8 13.9 12.4 75 2.4 SSW 19 32 10 17 1013.7 - 2.9
28/09:30pm 16.9 14.4 12.3 74 2.5 SSW 17 24 9 13 1013.7 - 2.9
28/09:15pm 17.0 14.1 12.4 74 2.6 SSW 19 28 10 15 1013.8 - 2.9
28/09:00pm 16.9 14.0 12.4 75 2.5 S 19 33 10 18 1013.8 - 2.9
28/08:45pm 17.1 15.0 12.5 74 2.6 S 15 22 8 12 1013.7 - 2.9
28/08:30pm 17.5 14.7 12.7 73 2.7 S 19 28 10 15 1013.7 - 2.9
28/08:15pm 17.8 14.2 12.9 73 2.8 S 24 41 13 22 1013.6 - 2.9
28/08:00pm 17.9 15.2 12.9 72 2.8 S 19 28 10 15 1013.5 - 2.9
28/07:45pm 18.2 15.3 13.0 71 2.9 S 20 33 11 18 1013.3 - 2.9
28/07:30pm 18.4 15.8 13.2 71 3.0 S 19 37 10 20 1013.2 - 2.9
28/07:15pm 18.6 15.8 13.3 71 3.0 S 20 35 11 19 1013.1 - 2.9
28/07:00pm 19.1 16.6 13.4 69 3.3 S 19 33 10 18 1012.9 - 2.9
28/06:45pm 19.5 17.1 13.8 69 3.3 S 19 32 10 17 1012.9 - 2.9
28/06:30pm 19.6 17.0 13.9 69 3.3 S 20 33 11 18 1013.0 - 2.9
28/06:15pm 19.4 17.2 14.8 75 2.7 S 20 33 11 18 1013.0 - 2.9
28/06:00pm 18.6 15.8 14.4 76 2.4 S 22 41 12 22 1013.0 - 2.9
28/05:45pm 18.7 16.5 14.5 76 2.4 S 19 30 10 16 1013.1 - 2.9
28/05:30pm 18.8 15.7 14.5 76 2.5 SSE 24 39 13 21 1013.1 - 2.9
28/05:15pm 19.0 17.7 15.9 82 1.9 SSE 17 50 9 27 1013.0 - 2.9
28/05:00pm 17.9 17.1 15.2 84 1.6 SSE 13 22 7 12 1013.1 - 2.9
28/04:45pm 17.4 13.8 14.2 81 1.8 SSE 26 39 14 21 1013.3 - 2.9
28/04:30pm 17.5 14.7 14.2 81 1.9 SSE 22 33 12 18 1013.2 - 2.9
28/04:15pm 17.3 14.3 13.6 79 2.1 SSE 22 33 12 18 1013.4 - 2.9
28/04:00pm 19.4 14.9 13.9 70 3.2 SSE 30 50 16 27 1013.2 - 2.9
28/03:45pm 19.7 16.7 13.6 68 3.5 SSE 22 37 12 20 1013.0 - 2.9
28/03:30pm 19.7 16.5 14.3 71 3.1 S 24 39 13 21 1013.0 - 2.9
28/03:15pm 18.7 16.2 14.2 75 2.6 S 20 35 11 19 1013.3 - 2.9
28/03:00pm 19.3 16.4 15.2 77 2.4 S 24 48 13 26 1013.4 - 2.9
28/02:45pm 18.5 17.0 15.4 82 1.8 S 17 28 9 15 1013.5 - 2.9
28/02:30pm 17.7 15.5 14.5 81 1.9 SSE 19 33 10 18 1013.8 - 2.9
28/02:15pm 18.4 14.8 14.3 77 2.4 SSE 26 43 14 23 1013.8 - 2.9
28/02:00pm 19.0 17.0 15.6 80 2.0 S 20 37 11 20 1013.8 - 2.7
28/01:45pm 17.7 15.6 14.6 82 1.8 SSE 19 32 10 17 1014.0 - 2.7
28/01:30pm 18.4 16.3 15.2 81 1.9 S 20 33 11 18 1014.2 - 2.7
28/01:15pm 18.3 17.7 15.6 84 1.6 S 13 22 7 12 1014.0 - 2.7
28/01:00pm 17.8 16.4 15.5 86 1.4 SSE 17 30 9 16 1013.9 - 2.7
28/12:45pm 17.7 15.7 15.6 87 1.2 S 20 35 11 19 1014.1 - 2.7
28/12:30pm 17.8 17.0 16.0 89 1.1 S 15 26 8 14 1014.1 - 2.7
28/12:15pm 17.4 15.7 15.7 90 1.0 SSE 19 32 10 17 1014.1 - 2.7
28/12:00pm 16.7 15.9 15.2 91 0.9 SSE 13 22 7 12 1014.1 - 2.7
28/11:45am 16.2 14.1 14.7 91 0.9 SSE 19 39 10 21 1014.3 - 2.7
28/11:30am 16.5 13.6 15.1 91 0.8 SSE 24 39 13 21 1014.4 - 2.7
28/11:15am 16.8 15.7 15.4 91 0.8 SSE 15 28 8 15 1014.1 - 2.7
28/11:00am 16.9 15.9 15.5 91 0.8 S 15 22 8 12 1014.2 - 2.2
28/10:45am 16.9 16.3 15.6 92 0.8 S 13 20 7 11 1014.1 - 1.8
28/10:30am 16.9 14.9 15.6 92 0.8 SSE 20 33 11 18 1014.0 - 1.8
28/10:15am 16.7 15.3 15.5 93 0.7 SSE 17 30 9 16 1013.9 - 1.8
28/10:00am 16.5 15.8 15.3 93 0.7 S 13 22 7 12 1013.9 - 1.8
28/09:45am 16.3 15.1 15.1 93 0.7 SSE 15 26 8 14 1013.9 - 1.8
28/09:30am 16.3 14.3 15.0 92 0.8 S 19 28 10 15 1013.7 - 1.6
28/09:15am 16.3 15.5 15.0 92 0.8 SSE 13 22 7 12 1013.5 - 0.7
28/09:00am 16.3 14.7 15.0 92 0.8 SSE 17 32 9 17 1013.5 - 74.7
28/08:45am 16.3 14.7 15.0 92 0.8 SSE 17 37 9 20 1013.3 - 74.3
28/08:30am 16.4 16.4 15.1 92 0.8 SSE 9 19 5 10 1013.1 - 72.7
28/08:15am 16.3 15.8 15.0 92 0.8 SE 11 20 6 11 1013.0 - 70.7
28/08:00am 16.3 14.7 14.9 91 0.8 SE 17 28 9 15 1012.9 - 67.0
28/07:45am 16.1 14.4 14.7 91 0.8 ESE 17 35 9 19 1012.6 - 63.7
28/07:30am 15.9 14.5 14.4 91 0.9 S 15 28 8 15 1012.2 - 60.8
28/07:15am 15.8 13.9 14.3 91 0.9 S 17 24 9 13 1012.1 - 60.7
28/07:00am 15.9 13.4 14.2 90 1.0 S 20 33 11 18 1012.0 - 59.2
28/06:45am 16.2 12.7 14.5 90 1.0 S 26 39 14 21 1011.7 - 58.5
28/06:30am 16.4 12.6 14.8 90 0.9 S 28 44 15 24 1011.5 - 58.1
28/06:15am 16.5 13.9 14.9 90 0.9 S 22 43 12 23 1011.5 - 58.1
28/06:00am 16.4 13.8 14.9 91 0.9 S 22 33 12 18 1011.4 - 58.1
28/05:45am 16.4 14.4 15.0 91 0.8 S 19 28 10 15 1011.3 - 58.1
28/05:30am 16.3 14.7 15.0 92 0.8 S 17 24 9 13 1011.2 - 58.1
28/05:15am 16.4 15.6 15.0 91 0.8 S 13 24 7 13 1011.3 - 58.1
28/05:00am 16.4 16.4 15.1 92 0.8 S 9 17 5 9 1011.3 - 58.1
28/04:45am 16.5 16.5 15.1 91 0.8 S 9 13 5 7 1011.3 - 58.1
28/04:30am 16.5 15.7 15.2 92 0.8 S 13 17 7 9 1011.4 - 58.1
28/04:15am 16.5 15.4 15.2 92 0.8 SSE 15 20 8 11 1011.3 - 58.1
28/04:00am 16.5 14.6 15.3 93 0.7 SSE 19 26 10 14 1011.3 - 58.1
28/03:45am 16.5 14.6 15.3 93 0.7 S 19 30 10 16 1011.4 - 58.1
28/03:30am 16.5 15.0 15.3 93 0.7 S 17 22 9 12 1011.5 - 58.1
28/03:15am 16.5 15.0 15.3 93 0.7 S 17 24 9 13 1011.6 - 58.1
28/03:00am 16.5 14.4 15.3 93 0.7 SSE 20 30 11 16 1011.6 - 58.1
28/02:45am 16.5 14.1 15.4 93 0.6 SSE 22 32 12 17 1011.7 - 58.1
28/02:30am 16.5 14.1 15.3 93 0.7 SSE 22 33 12 18 1011.9 - 58.1
28/02:15am 16.4 14.9 15.2 93 0.7 SSE 17 28 9 15 1012.0 - 58.1
28/02:00am 16.4 14.9 15.2 93 0.7 SSE 17 22 9 12 1012.1 - 58.0
28/01:45am 16.5 15.0 15.3 93 0.7 SSE 17 24 9 13 1012.3 - 58.0
28/01:30am 16.6 15.9 15.5 93 0.6 SSE 13 20 7 11 1012.5 - 58.0
28/01:15am 16.7 14.9 15.4 92 0.8 SSE 19 28 10 15 1012.6 - 57.8
28/01:00am 17.0 14.7 15.8 93 0.7 SE 22 32 12 17 1012.7 - 57.1
28/12:45am 17.1 14.1 15.9 93 0.7 SE 26 39 14 21 1012.7 - 56.2
28/12:30am 17.2 15.6 16.0 93 0.7 SE 19 33 10 18 1012.7 - 54.7
28/12:15am 17.0 15.7 15.8 93 0.7 S 17 24 9 13 1012.6 - 53.6
28/12:00am 16.9 15.9 15.7 93 0.7 S 15 19 8 10 1012.8 - 53.3
 
Date/Time
EDT
Tmp

°C
App
Tmp
°C
Dew
Point
°C
Rel
Hum
%
Delta-T

°C
Wind Press
QNH
hPa
Press
MSL
hPa
Rain
since
9 am
mm
Dir
 
Spd
km/h
Gust
km/h
Spd
kts
Gust
kts
27/11:45pm 16.9 16.3 15.7 93 0.7 S 13 17 7 9 1013.1 - 53.3
27/11:30pm 17.0 16.8 15.7 92 0.8 S 11 17 6 9 1013.1 - 53.3
27/11:15pm 17.0 16.8 15.8 93 0.7 SSE 11 15 6 8 1013.1 - 53.1
27/11:00pm 17.1 16.9 15.8 92 0.8 SSE 11 19 6 10 1013.1 - 52.7
27/10:45pm 17.1 16.6 15.9 93 0.7 SE 13 19 7 10 1013.2 - 51.3
27/10:30pm 17.0 17.2 15.8 93 0.7 ESE 9 17 5 9 1013.3 - 48.6
27/10:15pm 17.1 17.9 15.8 92 0.8 ESE 6 13 3 7 1013.2 - 43.6
27/10:00pm 17.0 17.6 15.7 92 0.8 SE 7 9 4 5 1013.1 - 41.0
27/09:45pm 17.1 17.3 15.8 92 0.8 ESE 9 17 5 9 1012.8 - 40.5
27/09:30pm 17.2 17.5 15.9 92 0.8 E 9 17 5 9 1012.7 - 39.4
27/09:15pm 17.3 17.6 15.9 91 0.8 E 9 17 5 9 1012.8 - 39.2
27/09:00pm 17.2 17.8 15.8 91 0.8 E 7 13 4 7 1012.9 - 39.1
27/08:45pm 17.3 16.8 15.9 91 0.8 ESE 13 22 7 12 1013.0 - 38.0
27/08:30pm 17.4 16.9 16.0 91 0.8 SE 13 20 7 11 1012.8 - 33.3
27/08:15pm 17.6 17.9 16.1 91 0.9 S 9 17 5 9 1012.4 - 30.6
27/08:00pm 17.6 17.9 16.1 91 0.9 S 9 13 5 7 1012.3 - 30.6
27/07:45pm 17.7 18.0 16.1 90 1.0 SSE 9 13 5 7 1012.3 - 30.4
27/07:30pm 17.8 18.1 16.1 90 1.0 SSE 9 15 5 8 1012.3 - 30.2
27/07:15pm 17.8 17.7 16.0 89 1.1 SE 11 17 6 9 1012.2 - 29.7
27/07:00pm 18.1 17.7 16.1 88 1.2 SE 13 20 7 11 1012.1 - 29.2
27/06:45pm 18.5 18.2 16.4 87 1.3 SSE 13 22 7 12 1011.9 - 29.0
27/06:30pm 18.5 17.4 16.4 87 1.3 SSE 17 20 9 11 1011.6 - 29.0
27/06:15pm 18.8 17.8 16.6 87 1.3 SSE 17 22 9 12 1011.6 - 29.0
27/06:00pm 18.8 18.1 16.5 86 1.4 SSE 15 24 8 13 1011.6 - 29.0
27/05:45pm 18.6 18.2 16.3 86 1.4 SSE 13 19 7 10 1011.6 - 29.0
27/05:30pm 18.6 18.2 16.3 86 1.4 ESE 13 19 7 10 1011.8 - 29.0
27/05:15pm 18.3 17.1 16.1 87 1.3 ESE 17 24 9 13 1012.1 - 29.0
27/05:00pm 18.4 16.6 16.1 86 1.4 SE 20 32 11 17 1012.2 - 29.0
27/04:45pm 18.6 17.0 16.4 87 1.3 SE 20 30 11 16 1012.2 - 29.0
27/04:30pm 18.6 18.0 16.6 88 1.2 SE 15 22 8 12 1012.2 - 29.0
27/04:15pm 18.3 17.3 16.5 89 1.1 ESE 17 24 9 13 1012.2 - 29.0
27/04:00pm 18.4 17.1 16.7 90 1.0 SE 19 28 10 15 1012.4 - 29.0
27/03:45pm 18.5 17.7 17.1 91 0.9 SE 17 22 9 12 1012.4 - 29.0
27/03:30pm 18.4 17.2 17.1 92 0.8 SE 19 28 10 15 1012.5 - 29.0
27/03:15pm 18.2 17.0 17.0 93 0.7 SE 19 28 10 15 1012.6 - 29.0
27/03:00pm 18.0 17.1 16.8 93 0.7 SE 17 26 9 14 1012.7 - 29.0
27/02:45pm 18.0 17.1 16.8 93 0.7 SE 17 26 9 14 1012.9 - 29.0
27/02:30pm 18.0 17.1 16.8 93 0.7 SE 17 22 9 12 1013.0 - 28.8
27/02:15pm 17.8 17.2 16.7 93 0.7 SE 15 22 8 12 1013.1 - 28.8
27/02:00pm 17.7 16.1 16.6 93 0.7 SE 20 26 11 14 1013.0 - 28.8
27/01:45pm 17.5 16.0 16.3 93 0.7 SE 19 26 10 14 1013.1 - 28.3
27/01:30pm 17.6 17.3 16.4 93 0.7 SE 13 22 7 12 1013.3 - 27.0
27/01:15pm 17.6 17.3 16.4 93 0.7 SE 13 22 7 12 1013.4 - 24.8
27/01:00pm 17.5 16.8 16.3 93 0.7 SE 15 22 8 12 1013.5 - 21.6
27/12:45pm 17.6 17.7 16.4 93 0.7 SE 11 19 6 10 1013.7 - 18.4
27/12:30pm 17.7 18.2 16.5 93 0.7 SE 9 15 5 8 1013.9 - 15.3
27/12:15pm 17.7 18.8 16.5 93 0.7 ESE 6 13 3 7 1014.1 - 10.4
27/12:00pm 17.8 18.7 16.6 93 0.7 SSE 7 13 4 7 1013.9 - 5.2
27/11:45am 17.8 18.3 16.6 93 0.7 ESE 9 15 5 8 1013.7 - 4.5
27/11:30am 17.8 17.6 16.6 93 0.7 ESE 13 19 7 10 1013.7 - 4.3
27/11:15am 17.8 18.3 16.5 92 0.8 ESE 9 15 5 8 1013.9 - 4.3
27/11:00am 17.7 17.0 16.5 93 0.7 ESE 15 19 8 10 1013.9 - 4.0
27/10:45am 17.9 16.9 16.7 93 0.7 ESE 17 28 9 15 1013.8 - 3.1
27/10:30am 18.0 17.1 16.8 93 0.7 ESE 17 26 9 14 1013.7 - 3.1
27/10:15am 18.1 16.3 16.9 93 0.7 ESE 22 32 12 17 1013.6 - 3.1
27/10:00am 18.0 16.5 16.8 93 0.7 SE 20 28 11 15 1013.4 - 3.1
27/09:45am 17.8 16.8 16.7 93 0.7 SE 17 26 9 14 1013.3 - 2.7
27/09:30am 17.8 17.2 16.7 93 0.7 SE 15 28 8 15 1013.3 - 2.5
27/09:15am 17.9 17.7 16.8 93 0.7 SE 13 26 7 14 1013.3 - 0.4
27/09:00am 17.9 17.4 16.8 93 0.7 SSE 15 28 8 15 1013.1 - 16.4
27/08:45am 17.8 17.2 16.7 93 0.7 SSE 15 22 8 12 1013.0 - 16.4
27/08:30am 17.7 16.7 16.6 93 0.7 SSE 17 24 9 13 1012.9 - 16.4
27/08:15am 17.5 16.4 16.4 93 0.7 SSE 17 24 9 13 1012.9 - 16.4
27/08:00am 17.1 15.9 16.0 93 0.7 SSE 17 24 9 13 1013.0 - 16.4
27/07:45am 17.0 15.7 15.9 93 0.7 SSE 17 22 9 12 1013.1 - 16.2
27/07:30am 17.0 16.1 15.9 93 0.7 SSE 15 22 8 12 1012.8 - 16.2
27/07:15am 17.0 15.4 15.9 93 0.7 SSE 19 26 10 14 1012.7 - 16.0
27/07:00am 17.0 15.7 15.9 93 0.7 SSE 17 30 9 16 1012.4 - 16.0
27/06:45am 17.0 15.4 15.9 93 0.7 SSE 19 26 10 14 1012.4 - 15.7
27/06:30am 17.0 15.2 15.9 93 0.7 SSE 20 28 11 15 1012.4 - 15.7
27/06:15am 17.0 15.4 15.9 93 0.7 SSE 19 26 10 14 1012.3 - 15.7
27/06:00am 17.2 15.1 16.1 93 0.7 SSE 22 33 12 18 1012.1 - 15.7
27/05:45am 17.3 16.1 16.2 93 0.7 SSE 17 24 9 13 1012.1 - 15.7
27/05:30am 17.3 15.8 16.2 93 0.7 SSE 19 24 10 13 1012.2 - 15.7
27/05:15am 17.4 16.2 16.2 93 0.7 SSE 17 22 9 12 1012.2 - 15.7
27/05:00am 17.5 16.4 16.4 93 0.7 SSE 17 24 9 13 1012.2 - 15.7
27/04:45am 17.6 17.3 16.4 93 0.7 SSE 13 19 7 10 1012.3 - 15.5
27/04:30am 17.6 17.7 16.4 93 0.7 SE 11 19 6 10 1012.5 - 15.5
27/04:15am 17.6 18.0 16.4 93 0.7 SSE 9 15 5 8 1012.6 - 15.3
27/04:00am 17.6 18.1 16.5 93 0.7 SSE 9 13 5 7 1012.7 - 15.1
27/03:45am 17.7 17.8 16.5 93 0.7 SE 11 17 6 9 1012.8 - 14.2
27/03:30am 17.7 17.8 16.5 93 0.7 ESE 11 19 6 10 1012.8 - 13.7
27/03:15am 17.7 17.8 16.5 93 0.7 E 11 20 6 11 1012.9 - 11.7
27/03:00am 17.6 17.3 16.4 93 0.7 SE 13 22 7 12 1012.8 - 9.0
27/02:45am 17.6 17.3 16.4 93 0.7 SSE 13 19 7 10 1012.9 - 7.4
27/02:30am 17.5 17.1 16.3 93 0.7 SSE 13 20 7 11 1013.0 - 6.5
27/02:15am 17.5 16.8 16.3 93 0.7 SSE 15 24 8 13 1013.1 - 5.8
27/02:00am 17.4 16.2 16.1 92 0.8 SSE 17 22 9 12 1013.2 - 5.6
27/01:45am 17.3 16.1 16.1 93 0.7 SSE 17 24 9 13 1013.3 - 5.4
27/01:30am 17.3 15.7 16.1 93 0.7 SSE 19 24 10 13 1013.5 - 5.4
27/01:15am 17.2 15.5 15.8 91 0.8 SSE 19 28 10 15 1013.6 - 5.4
27/01:00am 17.5 16.3 16.2 92 0.8 SE 17 24 9 13 1013.8 - 5.2
27/12:45am 17.3 18.0 16.1 93 0.7 E 7 22 4 12 1014.2 - 5.0
27/12:30am 17.3 17.2 16.0 92 0.8 SE 11 19 6 10 1014.2 - 3.2
27/12:15am 17.2 16.7 16.0 93 0.7 SSE 13 20 7 11 1014.1 - 2.9
27/12:00am 17.2 16.3 15.9 92 0.8 SSE 15 24 8 13 1014.1 - 2.9
 
Date/Time
EDT
Tmp

°C
App
Tmp
°C
Dew
Point
°C
Rel
Hum
%
Delta-T

°C
Wind Press
QNH
hPa
Press
MSL
hPa
Rain
since
9 am
mm
Dir
 
Spd
km/h
Gust
km/h
Spd
kts
Gust
kts
26/11:45pm 17.2 16.0 16.0 93 0.7 SSE 17 22 9 12 1014.3 - 2.9
26/11:30pm 17.3 16.1 16.1 93 0.7 SSE 17 24 9 13 1014.5 - 2.9
26/11:15pm 17.3 15.7 16.1 93 0.7 SSE 19 26 10 14 1014.5 - 2.9
26/11:00pm 17.4 16.2 16.1 92 0.8 SE 17 24 9 13 1014.7 - 2.9
26/10:45pm 17.4 16.6 16.1 92 0.8 SE 15 24 8 13 1014.9 - 2.9
26/10:30pm 17.4 15.6 16.1 92 0.8 SE 20 28 11 15 1014.8 - 2.9
26/10:15pm 17.3 15.5 16.0 92 0.8 SE 20 28 11 15 1014.8 - 2.9
26/10:00pm 17.3 16.5 16.0 92 0.8 SE 15 26 8 14 1015.3 - 2.9
26/09:45pm 17.1 17.4 15.9 93 0.7 SE 9 20 5 11 1015.2 - 2.7
26/09:30pm 17.0 17.7 15.7 92 0.8 ESE 6 9 3 5 1015.1 - 2.5
26/09:15pm 16.9 17.0 15.6 92 0.8 SSE 9 17 5 9 1014.9 - 1.4
26/09:00pm 16.9 16.2 15.5 91 0.8 SSE 13 17 7 9 1014.7 - 0.7
26/08:45pm 16.8 16.1 15.4 91 0.8 SSE 13 19 7 10 1014.6 - 0.7
26/08:30pm 16.8 15.3 15.4 91 0.8 SSE 17 20 9 11 1014.5 - 0.7
26/08:15pm 16.9 16.2 15.4 91 0.9 SSE 13 19 7 10 1014.4 - 0.5
26/08:00pm 16.9 15.1 15.5 91 0.8 SSE 19 26 10 14 1014.3 - 0.5
26/07:45pm 16.9 15.9 15.5 91 0.8 SSE 15 24 8 13 1014.3 - 0.4
26/07:30pm 16.8 15.7 15.3 91 0.9 SSE 15 22 8 12 1014.1 - 0.4
26/07:15pm 16.6 15.8 15.1 91 0.9 SSE 13 17 7 9 1014.0 - 0.2
26/07:00pm 16.6 15.4 15.0 90 0.9 S 15 24 8 13 1013.8 - 0.0
26/06:45pm 16.7 15.9 15.0 90 1.0 S 13 22 7 12 1013.8 - 0.0
26/06:30pm 16.9 15.7 15.1 89 1.1 SSE 15 26 8 14 1013.5 - 0.0
26/06:15pm 17.0 15.1 15.3 90 1.0 SSE 19 24 10 13 1013.4 - 0.0
26/06:00pm 17.1 16.0 15.2 88 1.1 SSE 15 24 8 13 1013.5 - 0.0
26/05:45pm 17.1 15.2 15.1 88 1.2 SSE 19 28 10 15 1013.5 - 0.0
26/05:30pm 17.4 15.9 15.4 88 1.2 SSE 17 30 9 16 1013.5 - 0.0
26/05:15pm 17.2 15.3 15.2 88 1.2 SSE 19 28 10 15 1013.5 - 0.0
26/05:00pm 17.1 15.1 15.0 87 1.2 SSE 19 26 10 14 1013.7 - 0.0
26/04:45pm 17.1 15.1 15.0 87 1.2 SSE 19 28 10 15 1013.8 - 0.0
26/04:30pm 17.1 15.8 14.8 86 1.3 S 15 24 8 13 1013.9 - 0.0
26/04:15pm 17.5 16.3 15.1 86 1.4 S 15 22 8 12 1013.8 - 0.0
26/04:00pm 17.6 15.7 15.1 85 1.5 SSE 19 30 10 16 1013.6 - 0.0
26/03:45pm 17.5 15.3 14.8 84 1.6 SSE 20 30 11 16 1013.6 - 0.0
26/03:30pm 17.8 15.2 14.9 83 1.7 SSE 22 37 12 20 1013.5 - 0.0
26/03:15pm 18.1 16.0 15.2 83 1.7 SSE 20 33 11 18 1013.5 - 0.0
26/03:00pm 18.0 15.9 15.2 84 1.6 S 20 33 11 18 1013.5 - 0.0
26/02:45pm 18.2 16.2 15.6 85 1.5 SSE 20 33 11 18 1013.5 - 0.0
26/02:30pm 18.0 16.1 15.7 86 1.4 SSE 20 30 11 16 1013.6 - 0.0
26/02:15pm 17.8 16.5 15.7 87 1.2 SSE 17 26 9 14 1013.7 - 0.0
26/02:00pm 17.4 15.5 15.2 87 1.3 SSE 19 32 10 17 1013.8 - 0.0
26/01:45pm 17.4 15.8 14.9 85 1.5 SSE 17 26 9 14 1013.8 - 0.0
26/01:30pm 17.8 15.8 14.9 83 1.7 SSE 19 33 10 18 1013.9 - 0.0
26/01:15pm 18.2 16.9 14.8 80 2.0 SSE 15 22 8 12 1013.9 - 0.0
26/01:00pm 18.6 16.9 14.7 78 2.3 SSE 17 28 9 15 1013.9 - 0.0
26/12:45pm 19.0 17.8 15.0 77 2.4 SSE 15 28 8 15 1013.9 - 0.0
26/12:30pm 19.0 17.0 15.0 77 2.4 SSE 19 32 10 17 1013.8 - 0.0
26/12:15pm 19.1 17.5 15.0 77 2.4 SSE 17 30 9 16 1013.7 - 0.0
26/12:00pm 18.9 16.2 14.7 76 2.5 SSE 22 33 12 18 1013.9 - 0.0
26/11:45am 19.2 16.2 14.8 75 2.6 SSE 24 37 13 20 1013.8 - 0.0
26/11:30am 19.3 16.7 14.9 75 2.6 SSE 22 37 12 20 1013.7 - 0.0
26/11:15am 19.3 16.3 14.8 75 2.6 SSE 24 44 13 24 1013.6 - 0.0
26/11:00am 19.5 16.9 14.9 75 2.7 SSE 22 37 12 20 1013.6 - 0.0
26/10:45am 19.7 17.2 15.1 75 2.7 SSE 22 33 12 18 1013.5 - 0.0
26/10:30am 19.6 17.7 15.2 76 2.6 SSE 19 28 10 15 1013.5 - 0.0
26/10:15am 19.3 16.7 15.0 76 2.5 SSE 22 33 12 18 1013.5 - 0.0
26/10:00am 19.1 15.8 15.0 77 2.4 SSE 26 39 14 21 1013.5 - 0.0
26/09:45am 19.0 16.1 15.0 77 2.4 SSE 24 33 13 18 1013.4 - 0.0
26/09:30am 18.9 16.3 15.0 78 2.3 SSE 22 35 12 19 1013.2 - 0.0
26/09:15am 19.0 16.4 15.0 77 2.4 SSE 22 35 12 19 1013.1 - 0.0
26/09:00am 19.1 16.6 15.1 77 2.4 SSE 22 37 12 20 1013.0 - 0.0
26/08:45am 19.1 17.2 15.1 77 2.4 SSE 19 28 10 15 1012.8 - 0.0
26/08:30am 19.1 17.0 15.1 77 2.4 SSE 20 32 11 17 1012.6 - 0.0
26/08:15am 19.1 17.0 15.1 77 2.4 SSE 20 33 11 18 1012.6 - 0.0
26/08:00am 19.1 17.2 15.1 77 2.4 SSE 19 32 10 17 1012.3 - 0.0
26/07:45am 19.1 17.0 15.2 78 2.3 SSE 20 32 11 17 1012.2 - 0.0
26/07:30am 19.1 16.6 15.2 78 2.3 SSE 22 32 12 17 1012.0 - 0.0
26/07:15am 19.0 17.1 15.2 78 2.2 SSE 19 28 10 15 1011.9 - 0.0

Latest Capital City Observations: Canberra | Sydney | Melbourne | Brisbane | Adelaide | Perth | Hobart | Darwin

Other Formats:

Comma delimited format used in spreadsheet applications
http://www.bom.gov.au/fwo/IDN60901/IDN60901.95757.axf

JavaScript Object Notation format (JSON) in row-major order
http://www.bom.gov.au/fwo/IDN60901/IDN60901.95757.json